General Aviation Weather

Text Reports

Enter one or more of the following location identifiers separated by a space:

Zip Code, Four-Character ICAO or Three-Character IATA airport codes.

METAR - Aviation Routine Weather Report
KMLE - Omaha Millard, Nebraska
Updated at 5:15 PM GMT on August 20, 2014 (12:15 PM CDT):
METAR KMLE 201715Z AUTO 13010KT 10SM CLR 27/22 A2984 RMK AO2 T02680217
TAF - Terminal Area Forecast
KMLE - Omaha Millard, Nebraska
Updated at 5:15 PM GMT on August 20, 2014 (12:15 PM CDT):
No TAF is currently available for this location.
Decoded:
No decoded TAF is available.
PIREP - Pilot Weather Report
KMLE - Omaha Millard, Nebraska
Updated at 5:15 PM GMT on August 20, 2014 (12:15 PM CDT):
No PIREP is currently available for this location.
AIRMET - Airmens Meteorological Information
KMLE - Omaha Millard, Nebraska
Updated at 5:15 PM GMT on August 20, 2014 (12:15 PM CDT):
No AIRMET is currently available for this location.
SIGMET - Significant Meteorological Information
KMLE - Omaha Millard, Nebraska
Updated at 5:15 PM GMT on August 20, 2014 (12:15 PM CDT):
No SIGMET is currently available for this location.
NOTAM - Notice to Airmen
KMLE - Omaha Millard, Nebraska
Updated at 5:15 PM GMT on August 20, 2014 (12:15 PM CDT):
No NOTAM is currently available for this location.
Forecast Area
KMLE - Omaha Millard, Nebraska
Updated at 5:15 PM GMT on August 20, 2014 (12:15 PM CDT):
No NOTAM is currently available for this location.
Aviation Weather Maps